createdAt,value
2018-03-25T00:00:00.252Z,22.10
2018-03-25T00:01:01.200Z,21.80
2018-03-25T00:02:02.585Z,21.90
2018-03-25T00:03:03.290Z,22.00
2018-03-25T00:04:03.981Z,21.70
2018-03-25T00:05:04.649Z,21.50
2018-03-25T00:06:05.331Z,22.10
2018-03-25T00:07:06.003Z,21.50
2018-03-25T00:08:08.141Z,22.40
2018-03-25T00:09:08.816Z,23.40
2018-03-25T00:10:09.512Z,22.70
2018-03-25T00:11:10.176Z,23.20
2018-03-25T00:12:10.882Z,22.40
2018-03-25T00:13:11.585Z,24.10
2018-03-25T00:14:12.371Z,23.50
2018-03-25T00:15:13.049Z,23.50
2018-03-25T00:16:13.718Z,22.90
2018-03-25T00:17:14.382Z,23.50
2018-03-25T00:18:15.062Z,23.80
2018-03-25T00:19:15.754Z,23.00
2018-03-25T00:20:16.428Z,23.50
2018-03-25T00:21:17.089Z,22.80
2018-03-25T00:22:17.766Z,23.80
2018-03-25T00:23:18.547Z,24.40
2018-03-25T00:24:19.202Z,23.60
2018-03-25T00:25:19.927Z,23.50
2018-03-25T00:26:20.628Z,23.90
2018-03-25T00:27:21.359Z,22.70
2018-03-25T00:28:22.078Z,22.40
2018-03-25T00:29:22.728Z,23.10
2018-03-25T00:30:23.427Z,23.30
2018-03-25T00:31:24.087Z,23.00
2018-03-25T00:32:24.744Z,22.90
2018-03-25T00:33:25.492Z,23.50
2018-03-25T00:34:26.155Z,23.60
2018-03-25T00:35:26.855Z,23.30
2018-03-25T00:36:27.573Z,24.30
2018-03-25T00:37:28.277Z,22.90
2018-03-25T00:38:28.941Z,22.80
2018-03-25T00:40:29.834Z,22.60
2018-03-25T00:41:30.477Z,22.40
2018-03-25T00:42:31.157Z,23.40
2018-03-25T00:43:31.835Z,23.50
2018-03-25T00:44:32.543Z,22.50
2018-03-25T00:45:33.286Z,22.70
2018-03-25T00:46:33.989Z,23.80
2018-03-25T00:47:34.650Z,23.60
2018-03-25T00:48:35.274Z,23.40
2018-03-25T00:49:36.687Z,23.90
2018-03-25T00:50:37.494Z,24.80
2018-03-25T00:51:38.176Z,23.90
2018-03-25T00:52:38.893Z,24.30
2018-03-25T00:53:39.562Z,23.50
2018-03-25T00:54:40.239Z,22.80
2018-03-25T00:55:40.957Z,23.70
2018-03-25T00:56:41.625Z,23.40
2018-03-25T00:57:42.284Z,22.40
2018-03-25T00:58:43.028Z,23.90
2018-03-25T00:59:43.684Z,23.20
2018-03-25T01:00:44.380Z,23.00
2018-03-25T01:01:45.083Z,23.40
2018-03-25T01:02:45.853Z,22.30
2018-03-25T01:03:46.515Z,22.50
2018-03-25T01:04:47.359Z,22.30
2018-03-25T01:05:48.045Z,22.20
2018-03-25T01:06:48.708Z,23.40
2018-03-25T01:07:49.405Z,23.30
2018-03-25T01:08:50.134Z,23.30
2018-03-25T01:09:50.767Z,22.50
2018-03-25T01:10:51.454Z,22.40
2018-03-25T01:11:52.158Z,22.60
2018-03-25T01:12:52.844Z,22.70
2018-03-25T01:13:53.494Z,22.30
2018-03-25T01:14:54.250Z,22.00
2018-03-25T01:15:54.890Z,23.10
2018-03-25T01:16:55.584Z,23.60
2018-03-25T01:17:57.160Z,22.20
2018-03-25T01:18:57.906Z,22.90
2018-03-25T01:19:58.671Z,21.90
2018-03-25T01:20:59.330Z,22.00
2018-03-25T01:21:59.975Z,23.30
2018-03-25T01:23:00.744Z,23.10
2018-03-25T01:24:01.384Z,22.90
2018-03-25T01:25:02.050Z,23.10
2018-03-25T01:26:02.722Z,23.70
2018-03-25T01:27:03.453Z,23.20
2018-03-25T01:28:04.860Z,24.00
2018-03-25T01:29:05.525Z,23.50
2018-03-25T01:30:06.204Z,23.00
2018-03-25T01:31:06.858Z,23.00
2018-03-25T01:32:07.533Z,22.60
2018-03-25T01:33:08.233Z,22.50
2018-03-25T01:34:08.908Z,23.80
2018-03-25T01:35:09.583Z,23.80
2018-03-25T01:37:10.559Z,23.80
2018-03-25T01:38:11.398Z,23.50
2018-03-25T01:39:12.070Z,24.30
2018-03-25T01:40:12.778Z,23.90
2018-03-25T01:41:13.443Z,22.80
2018-03-25T01:42:14.088Z,22.40
2018-03-25T01:43:14.785Z,23.20
2018-03-25T01:44:15.461Z,22.30
2018-03-25T01:45:16.110Z,22.30
2018-03-25T01:46:16.786Z,22.60
2018-03-25T01:47:17.449Z,22.60
2018-03-25T01:48:18.154Z,23.40
2018-03-25T01:49:18.805Z,22.30
2018-03-25T01:50:19.542Z,22.50
2018-03-25T01:51:20.279Z,23.10
2018-03-25T01:52:20.964Z,22.90
2018-03-25T01:53:21.637Z,22.40
2018-03-25T01:54:22.318Z,22.50
2018-03-25T01:55:23.007Z,21.90
2018-03-25T01:56:23.655Z,22.20
2018-03-25T01:57:24.379Z,22.60
2018-03-25T01:59:25.381Z,23.10
2018-03-25T02:00:26.613Z,22.10
2018-03-25T02:01:27.275Z,23.70
2018-03-25T02:02:27.954Z,22.70
2018-03-25T02:03:28.639Z,22.20
2018-03-25T02:04:29.312Z,22.70
2018-03-25T02:05:30.027Z,22.70
2018-03-25T02:06:30.730Z,23.00
2018-03-25T02:07:31.392Z,22.10
2018-03-25T02:08:32.050Z,22.90
2018-03-25T02:09:32.834Z,23.50
2018-03-25T02:10:33.530Z,24.20
2018-03-25T02:11:34.221Z,23.70
2018-03-25T02:12:34.893Z,23.50
2018-03-25T02:13:35.588Z,22.80
2018-03-25T02:14:36.302Z,23.40
2018-03-25T02:15:36.978Z,22.30
2018-03-25T02:16:37.636Z,22.40
2018-03-25T02:17:38.333Z,23.30
2018-03-25T02:18:39.038Z,22.70
2018-03-25T02:19:39.685Z,23.00
2018-03-25T02:20:40.342Z,22.30
2018-03-25T02:21:41.051Z,23.00
2018-03-25T02:22:41.743Z,22.60
2018-03-25T02:23:42.406Z,23.50
2018-03-25T02:24:43.079Z,22.70
2018-03-25T02:25:43.736Z,22.60
2018-03-25T02:26:44.395Z,23.10
2018-03-25T02:27:45.060Z,23.10
2018-03-25T02:28:45.716Z,23.00
2018-03-25T02:29:46.389Z,22.20
2018-03-25T02:30:47.055Z,23.40
2018-03-25T02:31:47.815Z,23.30
2018-03-25T02:32:48.532Z,22.30
2018-03-25T02:33:49.230Z,23.10
2018-03-25T02:34:49.905Z,22.40
2018-03-25T02:35:50.539Z,22.50
2018-03-25T02:36:51.211Z,22.40
2018-03-25T02:37:51.956Z,23.90
2018-03-25T02:38:52.644Z,22.90
2018-03-25T02:39:53.306Z,22.50
2018-03-25T02:40:54.016Z,23.20
2018-03-25T02:41:54.675Z,23.20
2018-03-25T02:42:55.329Z,23.50
2018-03-25T02:43:56.009Z,23.50
2018-03-25T02:44:56.661Z,23.90
2018-03-25T02:45:57.330Z,24.30
2018-03-25T02:46:58.020Z,23.50
2018-03-25T02:47:58.658Z,23.80
2018-03-25T02:48:59.298Z,24.10
2018-03-25T02:50:00.034Z,23.20
2018-03-25T02:51:00.728Z,23.20
2018-03-25T02:52:01.404Z,23.90
2018-03-25T02:53:02.083Z,23.70
2018-03-25T02:54:02.741Z,23.10
2018-03-25T02:55:04.223Z,23.30
2018-03-25T02:56:04.896Z,23.00
2018-03-25T02:57:05.590Z,23.50
2018-03-25T02:58:06.277Z,21.80
2018-03-25T02:59:06.942Z,22.60
2018-03-25T03:00:07.662Z,22.00
2018-03-25T03:01:08.399Z,22.10
2018-03-25T03:02:09.087Z,21.10
2018-03-25T03:03:09.788Z,21.90
2018-03-25T03:04:10.511Z,22.50
2018-03-25T03:05:11.176Z,22.30
2018-03-25T03:06:11.849Z,22.50
2018-03-25T03:07:12.551Z,23.60
2018-03-25T03:09:15.548Z,22.80
2018-03-25T03:10:16.202Z,22.10
2018-03-25T03:11:16.868Z,21.70
2018-03-25T03:12:17.503Z,22.00
2018-03-25T03:13:18.160Z,22.00
2018-03-25T03:14:18.802Z,23.60
2018-03-25T03:15:19.491Z,22.60
2018-03-25T03:16:20.177Z,22.80
2018-03-25T03:17:20.848Z,24.10
2018-03-25T03:18:21.597Z,22.70
2018-03-25T03:19:22.331Z,23.60
2018-03-25T03:20:23.017Z,22.20
2018-03-25T03:21:23.673Z,22.50
2018-03-25T03:22:24.344Z,22.50
2018-03-25T03:23:25.038Z,23.30
2018-03-25T03:24:25.747Z,22.40
2018-03-25T03:25:26.415Z,23.00
2018-03-25T03:26:27.072Z,23.40
2018-03-25T03:27:28.784Z,22.60
2018-03-25T03:28:29.462Z,23.10
2018-03-25T03:29:30.145Z,23.00
2018-03-25T03:30:30.798Z,22.40
2018-03-25T03:31:31.509Z,23.40
2018-03-25T03:32:32.137Z,22.50
2018-03-25T03:33:32.837Z,22.90
2018-03-25T03:34:33.511Z,23.70
2018-03-25T03:35:34.397Z,22.60
2018-03-25T03:36:35.085Z,24.40
2018-03-25T03:37:36.639Z,24.60
2018-03-25T03:38:37.320Z,24.80
2018-03-25T03:39:37.994Z,24.20
2018-03-25T03:40:38.661Z,23.20
2018-03-25T03:41:39.320Z,23.50
2018-03-25T03:42:40.027Z,23.60
2018-03-25T03:43:40.680Z,23.30
2018-03-25T03:44:41.357Z,24.30
2018-03-25T03:45:42.032Z,24.00
2018-03-25T03:46:42.719Z,24.00
2018-03-25T03:47:43.382Z,23.90
2018-03-25T03:48:44.074Z,23.50
2018-03-25T03:49:44.712Z,24.30
2018-03-25T03:50:45.380Z,23.40
2018-03-25T03:51:46.771Z,23.90
2018-03-25T03:52:47.460Z,23.50
2018-03-25T03:53:48.133Z,22.60
2018-03-25T03:54:48.869Z,23.40
2018-03-25T03:56:49.810Z,22.60
2018-03-25T03:58:50.782Z,22.60
2018-03-25T03:59:51.454Z,21.80
2018-03-25T04:00:52.137Z,21.40
2018-03-25T04:01:52.841Z,22.70
2018-03-25T04:02:53.484Z,23.20
2018-03-25T04:03:54.156Z,22.20
2018-03-25T04:04:54.837Z,22.10
2018-03-25T04:05:55.472Z,22.80
2018-03-25T04:06:56.184Z,22.60
2018-03-25T04:07:57.459Z,21.80
2018-03-25T04:09:58.473Z,22.00
2018-03-25T04:10:59.188Z,22.00
2018-03-25T04:13:00.138Z,21.40
2018-03-25T04:14:00.817Z,23.50
2018-03-25T04:15:01.486Z,22.90
2018-03-25T04:16:02.163Z,22.60
2018-03-25T04:17:02.834Z,23.70
2018-03-25T04:18:03.534Z,24.20
2018-03-25T04:19:05.115Z,23.20
2018-03-25T04:20:05.836Z,23.00
2018-03-25T04:21:06.533Z,24.00
2018-03-25T04:22:07.221Z,23.40
2018-03-25T04:23:07.893Z,22.60
2018-03-25T04:24:08.597Z,23.20
2018-03-25T04:25:09.251Z,23.10
2018-03-25T04:26:09.906Z,22.30
2018-03-25T04:27:10.578Z,21.90
2018-03-25T04:28:11.290Z,23.10
2018-03-25T04:29:12.010Z,22.90
2018-03-25T04:30:13.516Z,23.00
2018-03-25T04:31:14.251Z,22.50
2018-03-25T04:32:14.902Z,23.30
2018-03-25T04:33:15.537Z,22.30
2018-03-25T04:34:16.218Z,22.90
2018-03-25T04:35:16.913Z,23.50
2018-03-25T04:36:17.616Z,24.00
2018-03-25T04:37:18.299Z,23.70
2018-03-25T04:38:19.067Z,22.40
2018-03-25T04:39:20.525Z,23.20
2018-03-25T04:40:21.181Z,24.10
2018-03-25T04:41:21.956Z,23.60
2018-03-25T04:42:22.637Z,22.60
2018-03-25T04:43:23.370Z,23.20
2018-03-25T04:44:24.037Z,22.60
2018-03-25T04:45:24.731Z,22.00
2018-03-25T04:46:25.382Z,22.10
2018-03-25T04:47:26.065Z,22.70
2018-03-25T04:48:26.734Z,21.80
2018-03-25T04:49:27.378Z,22.70
2018-03-25T04:50:28.086Z,22.60
2018-03-25T04:51:28.778Z,23.20
2018-03-25T04:52:29.501Z,22.20
2018-03-25T04:53:30.234Z,22.00
2018-03-25T04:54:31.051Z,22.50
2018-03-25T04:55:32.563Z,22.70
2018-03-25T04:56:36.625Z,22.40
2018-03-25T04:57:38.056Z,22.00
2018-03-25T04:58:38.981Z,22.60
2018-03-25T05:00:40.002Z,21.80
2018-03-25T05:01:40.661Z,22.90
2018-03-25T05:02:41.338Z,22.90
2018-03-25T05:03:42.064Z,23.10
2018-03-25T05:04:42.837Z,23.10
2018-03-25T05:05:43.638Z,22.20
2018-03-25T05:06:44.872Z,22.40
2018-03-25T05:07:45.554Z,22.20
2018-03-25T05:08:46.219Z,23.20
2018-03-25T05:09:48.414Z,22.40
2018-03-25T05:10:49.900Z,22.50
2018-03-25T05:11:50.550Z,22.40
2018-03-25T05:12:51.225Z,23.30
2018-03-25T05:13:52.775Z,22.30
2018-03-25T05:15:54.457Z,24.20
2018-03-25T05:17:55.371Z,23.50
2018-03-25T05:18:56.097Z,23.20
2018-03-25T05:19:57.665Z,23.00
2018-03-25T05:21:02.654Z,23.20
2018-03-25T05:22:04.924Z,24.00
2018-03-25T05:23:05.615Z,23.90
2018-03-25T05:24:07.039Z,23.10
2018-03-25T05:25:07.761Z,23.30
2018-03-25T05:26:08.426Z,22.10
2018-03-25T05:27:09.226Z,22.50
2018-03-25T05:28:09.905Z,22.30
2018-03-25T05:29:10.608Z,23.50
2018-03-25T05:30:11.279Z,23.20
2018-03-25T05:31:12.082Z,22.80
2018-03-25T05:32:13.830Z,23.00
2018-03-25T05:33:14.490Z,22.40
2018-03-25T05:34:15.202Z,22.60
2018-03-25T05:35:15.925Z,21.80
2018-03-25T05:36:16.663Z,23.20
2018-03-25T05:37:17.347Z,23.40
2018-03-25T05:38:18.052Z,22.50
2018-03-25T05:39:18.735Z,23.00
2018-03-25T05:40:19.434Z,22.20
2018-03-25T05:42:20.389Z,22.20
2018-03-25T05:43:21.206Z,20.40
2018-03-25T05:45:22.146Z,20.40
2018-03-25T05:47:23.138Z,22.30
2018-03-25T05:48:23.828Z,22.10
2018-03-25T05:49:24.528Z,21.60
2018-03-25T05:50:25.857Z,23.10
2018-03-25T05:51:26.684Z,21.30
2018-03-25T05:52:27.409Z,22.30
2018-03-25T05:53:28.064Z,23.00
2018-03-25T05:54:28.934Z,21.40
2018-03-25T05:55:29.657Z,21.70
2018-03-25T05:56:30.604Z,21.60
2018-03-25T05:57:31.342Z,22.00
2018-03-25T05:58:32.065Z,21.50
2018-03-25T05:59:32.767Z,22.10
2018-03-25T06:00:33.470Z,22.70
2018-03-25T06:01:35.306Z,22.10
2018-03-25T06:02:35.994Z,23.30
2018-03-25T06:03:36.911Z,23.00
2018-03-25T06:04:38.435Z,23.00
2018-03-25T06:05:39.303Z,22.60
2018-03-25T06:06:39.984Z,23.40
2018-03-25T06:07:43.432Z,22.80
2018-03-25T06:08:45.268Z,22.80
2018-03-25T06:09:45.988Z,22.50
2018-03-25T06:10:47.322Z,22.60
2018-03-25T06:11:48.054Z,22.90
2018-03-25T06:12:48.723Z,23.60
2018-03-25T06:13:49.462Z,23.90
2018-03-25T06:14:50.152Z,22.90
2018-03-25T06:15:50.935Z,23.20
2018-03-25T06:16:51.742Z,22.90
2018-03-25T06:17:52.435Z,23.80
2018-03-25T06:18:53.085Z,22.90
2018-03-25T06:19:53.822Z,23.60
2018-03-25T06:20:54.569Z,23.80
2018-03-25T06:21:55.285Z,24.00
2018-03-25T06:22:55.996Z,22.50
2018-03-25T06:24:56.976Z,23.60
2018-03-25T06:25:57.707Z,23.10
2018-03-25T06:27:10.732Z,23.40
2018-03-25T06:28:11.511Z,22.10
2018-03-25T06:29:12.231Z,24.50
2018-03-25T06:30:12.922Z,24.10
2018-03-25T06:31:13.755Z,23.80
2018-03-25T06:32:14.418Z,21.70
2018-03-25T06:34:15.468Z,23.30
2018-03-25T06:35:16.119Z,24.00
2018-03-25T06:36:17.273Z,22.90
2018-03-25T06:37:18.123Z,22.40
2018-03-25T06:38:18.837Z,22.60
2018-03-25T06:39:19.576Z,22.20
2018-03-25T06:40:20.270Z,21.90
2018-03-25T06:41:20.947Z,22.00
2018-03-25T06:42:22.644Z,22.30
2018-03-25T06:43:23.288Z,22.30
2018-03-25T06:44:24.553Z,22.10
2018-03-25T06:45:25.267Z,20.90
2018-03-25T06:46:25.942Z,21.80
2018-03-25T06:47:26.739Z,21.80
2018-03-25T06:48:27.438Z,21.30
2018-03-25T06:49:28.138Z,21.90
2018-03-25T06:50:28.818Z,22.20
2018-03-25T06:51:29.570Z,21.80
2018-03-25T06:52:30.348Z,22.70
2018-03-25T06:54:31.325Z,22.10
2018-03-25T06:55:32.036Z,22.90
2018-03-25T06:56:32.711Z,23.90
2018-03-25T06:57:33.401Z,23.90
2018-03-25T06:58:34.084Z,22.80
2018-03-25T06:59:34.780Z,22.80
2018-03-25T07:00:35.491Z,23.30
2018-03-25T07:01:36.382Z,23.20
2018-03-25T07:02:38.046Z,22.30
2018-03-25T07:03:38.770Z,23.10
2018-03-25T07:04:39.445Z,22.60
2018-03-25T07:05:40.275Z,22.00
2018-03-25T07:06:41.856Z,22.20
2018-03-25T07:07:44.332Z,21.80
2018-03-25T07:08:45.102Z,21.60
2018-03-25T07:09:45.789Z,21.90
2018-03-25T07:10:47.482Z,21.00
2018-03-25T07:11:48.311Z,21.90
2018-03-25T07:12:48.974Z,20.90
2018-03-25T07:13:49.694Z,22.10
2018-03-25T07:14:50.478Z,22.00
2018-03-25T07:15:51.210Z,22.70
2018-03-25T07:16:51.913Z,22.50
2018-03-25T07:17:52.594Z,22.60
2018-03-25T07:18:53.289Z,23.20
2018-03-25T07:20:55.180Z,21.30
2018-03-25T07:21:56.053Z,22.00
2018-03-25T07:23:57.718Z,22.00
2018-03-25T07:24:58.470Z,21.20
2018-03-25T07:25:59.132Z,22.40
2018-03-25T07:26:59.860Z,22.50
2018-03-25T07:28:00.568Z,21.10
2018-03-25T07:29:01.279Z,22.10
2018-03-25T07:30:01.961Z,22.00
2018-03-25T07:31:02.653Z,20.60
2018-03-25T07:32:03.946Z,22.00
2018-03-25T07:33:04.632Z,21.80
2018-03-25T07:34:05.343Z,22.60
2018-03-25T07:35:06.081Z,22.70
2018-03-25T07:36:06.808Z,23.40
2018-03-25T07:37:07.528Z,23.00
2018-03-25T07:38:09.067Z,24.50
2018-03-25T07:39:09.767Z,24.50
2018-03-25T07:40:10.501Z,24.10
2018-03-25T07:41:11.167Z,23.00
2018-03-25T07:42:11.873Z,24.20
2018-03-25T07:43:12.541Z,23.60
2018-03-25T07:45:14.610Z,23.50
2018-03-25T07:46:15.336Z,24.40
2018-03-25T07:47:15.976Z,23.80
2018-03-25T07:48:16.692Z,23.70
2018-03-25T07:49:17.987Z,24.20
2018-03-25T07:50:18.642Z,23.60
2018-03-25T07:52:19.728Z,26.30
2018-03-25T07:53:20.386Z,25.00
2018-03-25T07:54:21.071Z,24.30
2018-03-25T07:56:22.033Z,25.50
2018-03-25T07:57:22.838Z,25.00
2018-03-25T07:58:24.574Z,24.40
2018-03-25T07:59:25.257Z,24.50
2018-03-25T08:00:25.968Z,25.70
2018-03-25T08:01:26.631Z,26.30
2018-03-25T08:02:27.373Z,24.80
2018-03-25T08:03:28.096Z,26.00
2018-03-25T08:04:28.787Z,26.30
2018-03-25T08:05:30.476Z,26.20
2018-03-25T08:06:32.098Z,25.70
2018-03-25T08:07:32.854Z,24.80
2018-03-25T08:08:33.535Z,25.60
2018-03-25T08:09:34.786Z,24.40
2018-03-25T08:10:36.175Z,24.90
2018-03-25T08:11:36.894Z,26.80
2018-03-25T08:12:37.615Z,25.60
2018-03-25T08:13:38.305Z,26.70
2018-03-25T08:14:39.091Z,26.60
2018-03-25T08:15:39.761Z,25.90
2018-03-25T08:16:41.304Z,25.00
2018-03-25T08:17:42.048Z,25.90
2018-03-25T08:18:42.729Z,26.30
2018-03-25T08:19:43.472Z,27.00
2018-03-25T08:21:44.412Z,26.20
2018-03-25T08:22:45.131Z,25.50
2018-03-25T08:23:45.797Z,24.60
2018-03-25T08:24:46.471Z,26.40
2018-03-25T08:25:47.137Z,26.20
2018-03-25T08:26:47.807Z,25.30
2018-03-25T08:27:48.466Z,26.60
2018-03-25T08:28:49.157Z,25.90
2018-03-25T08:29:49.902Z,26.30
2018-03-25T08:30:50.531Z,25.10
2018-03-25T08:31:51.216Z,25.40
2018-03-25T08:32:52.915Z,25.50
2018-03-25T08:33:53.651Z,26.30
2018-03-25T08:34:55.083Z,27.10
2018-03-25T08:35:55.750Z,27.00
2018-03-25T08:36:56.425Z,26.80
2018-03-25T08:37:57.167Z,25.80
2018-03-25T08:38:57.851Z,25.80
2018-03-25T08:40:58.764Z,25.80
2018-03-25T08:41:59.470Z,26.10
2018-03-25T08:43:00.134Z,26.10
2018-03-25T08:44:00.882Z,26.20
2018-03-25T08:45:01.553Z,25.70
2018-03-25T08:46:02.241Z,27.10
2018-03-25T08:47:02.929Z,27.10
2018-03-25T08:48:03.585Z,27.70
2018-03-25T08:49:06.647Z,26.60
2018-03-25T08:50:07.405Z,25.70
2018-03-25T08:51:08.096Z,26.90
2018-03-25T08:52:08.793Z,25.80
2018-03-25T08:53:09.471Z,26.30
2018-03-25T08:54:10.133Z,26.00
2018-03-25T08:55:10.785Z,27.40
2018-03-25T08:56:12.329Z,25.70
2018-03-25T08:57:16.926Z,27.00
2018-03-25T08:58:17.608Z,26.70
2018-03-25T08:59:18.298Z,26.90
2018-03-25T09:00:19.064Z,27.00
2018-03-25T09:01:21.576Z,25.80
2018-03-25T09:02:24.833Z,26.60
2018-03-25T09:03:32.088Z,26.60
2018-03-25T09:04:42.614Z,26.80
2018-03-25T09:05:43.416Z,25.50
2018-03-25T09:06:44.099Z,27.20
2018-03-25T09:07:44.946Z,26.80
2018-03-25T09:08:46.262Z,26.30
2018-03-25T09:09:47.631Z,26.20
2018-03-25T09:10:49.501Z,25.70
2018-03-25T09:11:51.928Z,27.40
2018-03-25T09:12:52.627Z,25.50
2018-03-25T09:13:53.350Z,25.50
2018-03-25T09:14:54.061Z,25.80
2018-03-25T09:15:54.809Z,26.70
2018-03-25T09:16:55.501Z,26.10
2018-03-25T09:17:56.195Z,26.20
2018-03-25T09:18:56.862Z,25.50
2018-03-25T09:19:57.541Z,25.60
2018-03-25T09:21:05.477Z,26.60
2018-03-25T09:22:06.434Z,26.10
2018-03-25T09:23:07.974Z,26.20
2018-03-25T09:24:10.516Z,26.70
2018-03-25T09:25:11.258Z,26.50
2018-03-25T09:26:11.972Z,26.10
2018-03-25T09:27:13.547Z,27.00
2018-03-25T09:28:14.221Z,27.40
2018-03-25T09:29:14.967Z,26.80
2018-03-25T09:30:15.657Z,26.40
2018-03-25T09:31:16.382Z,27.20
2018-03-25T09:32:17.085Z,26.90
2018-03-25T09:33:17.753Z,27.60
2018-03-25T09:34:18.438Z,26.70
2018-03-25T09:35:19.129Z,26.70
2018-03-25T09:37:20.128Z,26.10
2018-03-25T09:38:20.797Z,27.00
2018-03-25T09:39:21.491Z,26.40
2018-03-25T09:40:22.174Z,25.80
2018-03-25T09:41:23.189Z,24.60
2018-03-25T09:42:23.908Z,26.50
2018-03-25T09:43:24.621Z,25.90
2018-03-25T09:44:25.459Z,26.70
2018-03-25T09:45:26.295Z,26.40
2018-03-25T09:46:27.103Z,26.50
2018-03-25T09:47:28.437Z,25.90
2018-03-25T09:48:29.140Z,25.30
2018-03-25T09:49:36.193Z,25.30
2018-03-25T09:51:10.511Z,30.10
2018-03-25T09:52:11.979Z,27.00
2018-03-25T09:53:12.739Z,26.50
2018-03-25T09:54:13.487Z,26.00
2018-03-25T09:55:14.994Z,26.40
2018-03-25T09:56:25.827Z,27.60
2018-03-25T09:57:26.591Z,27.60
2018-03-25T09:58:27.302Z,26.60
2018-03-25T09:59:27.978Z,26.80
2018-03-25T10:00:29.099Z,27.40
2018-03-25T10:01:29.840Z,27.50
2018-03-25T10:02:30.603Z,27.90
2018-03-25T10:03:31.399Z,27.90
2018-03-25T10:04:32.205Z,26.00
2018-03-25T10:05:33.785Z,24.60
2018-03-25T10:06:34.479Z,25.50
2018-03-25T10:07:35.286Z,25.80
2018-03-25T10:08:36.001Z,25.40
2018-03-25T10:09:36.795Z,25.90
2018-03-25T10:10:49.807Z,27.00
2018-03-25T10:11:50.649Z,25.50
2018-03-25T10:12:51.483Z,26.60
2018-03-25T10:13:52.333Z,25.40
2018-03-25T10:14:53.056Z,25.20
2018-03-25T10:15:53.854Z,25.70
2018-03-25T10:16:54.528Z,25.10
2018-03-25T10:17:55.247Z,25.50
2018-03-25T10:18:56.048Z,25.00
2018-03-25T10:19:56.828Z,24.30
2018-03-25T10:20:58.371Z,24.80
2018-03-25T10:21:59.839Z,23.60
2018-03-25T10:23:00.602Z,24.00
2018-03-25T10:24:01.417Z,23.70
2018-03-25T10:25:02.210Z,24.60
2018-03-25T10:26:03.258Z,24.20
2018-03-25T10:27:04.083Z,23.60
2018-03-25T10:28:04.781Z,25.30
2018-03-25T10:29:05.457Z,23.50
2018-03-25T10:30:06.114Z,24.00
2018-03-25T10:31:09.961Z,25.00
2018-03-25T10:32:15.104Z,25.00
2018-03-25T10:33:15.852Z,23.40
2018-03-25T10:35:16.813Z,24.70
2018-03-25T10:36:17.797Z,24.40
2018-03-25T10:37:18.626Z,24.70
2018-03-25T10:38:19.330Z,23.80
2018-03-25T10:39:20.223Z,24.60
2018-03-25T10:40:20.958Z,24.20
2018-03-25T10:41:21.737Z,24.40
2018-03-25T10:42:24.251Z,22.10
2018-03-25T10:43:25.075Z,24.50
2018-03-25T10:44:25.901Z,24.00
2018-03-25T10:45:26.582Z,24.50
2018-03-25T10:46:27.544Z,23.90
2018-03-25T10:47:28.299Z,23.60
2018-03-25T10:48:28.997Z,23.10
2018-03-25T10:49:29.659Z,23.00
2018-03-25T10:50:30.334Z,22.40
2018-03-25T10:51:31.160Z,23.50
2018-03-25T10:52:31.993Z,23.50
2018-03-25T10:53:32.630Z,23.60
2018-03-25T10:54:34.252Z,24.20
2018-03-25T10:55:35.048Z,23.20
2018-03-25T10:56:35.743Z,22.00
2018-03-25T10:57:36.494Z,22.20
2018-03-25T10:58:37.647Z,23.80
2018-03-25T10:59:38.649Z,23.50
2018-03-25T11:00:39.907Z,22.70
2018-03-25T11:01:40.650Z,22.20
2018-03-25T11:02:41.582Z,23.50
2018-03-25T11:03:42.320Z,22.40
2018-03-25T11:04:43.104Z,23.30
2018-03-25T11:05:43.815Z,23.70
2018-03-25T11:06:44.496Z,23.40
2018-03-25T11:07:46.118Z,23.80
2018-03-25T11:08:47.058Z,24.40
2018-03-25T11:09:48.703Z,22.60
2018-03-25T11:10:51.482Z,23.60
2018-03-25T11:11:52.993Z,23.80
2018-03-25T11:12:53.849Z,23.70
2018-03-25T11:13:54.583Z,23.40
2018-03-25T11:14:55.313Z,22.70
2018-03-25T11:15:56.889Z,24.30
2018-03-25T11:16:57.685Z,23.60
2018-03-25T11:18:01.226Z,23.90
2018-03-25T11:19:01.983Z,23.90
2018-03-25T11:20:02.741Z,23.80
2018-03-25T11:21:04.466Z,24.00
2018-03-25T11:22:05.173Z,24.00
2018-03-25T11:23:05.841Z,23.20
2018-03-25T11:24:06.542Z,23.60
2018-03-25T11:25:07.232Z,23.90
2018-03-25T11:26:07.914Z,22.40
2018-03-25T11:27:08.618Z,21.50
2018-03-25T11:28:09.481Z,22.40
2018-03-25T11:29:10.227Z,22.10
2018-03-25T11:30:10.880Z,21.10
2018-03-25T11:32:11.911Z,23.30
2018-03-25T11:33:13.113Z,23.70
2018-03-25T11:34:13.792Z,24.70
2018-03-25T11:35:14.485Z,26.50
2018-03-25T11:36:15.228Z,23.80
2018-03-25T11:37:15.890Z,24.10
2018-03-25T11:38:16.693Z,23.60
2018-03-25T11:39:17.350Z,23.00
2018-03-25T11:40:38.598Z,22.20
2018-03-25T11:41:39.304Z,22.90
2018-03-25T11:42:41.963Z,22.20
2018-03-25T11:43:42.721Z,22.20
2018-03-25T11:44:43.397Z,23.10
2018-03-25T11:45:44.117Z,23.20
2018-03-25T11:46:44.792Z,23.20
2018-03-25T11:47:45.540Z,22.40
2018-03-25T11:48:46.337Z,22.90
2018-03-25T11:49:47.032Z,22.80
2018-03-25T11:50:47.710Z,22.60
2018-03-25T11:51:48.391Z,23.60
2018-03-25T11:52:49.198Z,24.30
2018-03-25T11:53:49.996Z,23.00
2018-03-25T11:54:52.399Z,21.70
2018-03-25T11:55:53.064Z,22.60
2018-03-25T11:56:53.711Z,23.20
2018-03-25T11:57:54.608Z,22.30
2018-03-25T11:58:55.389Z,21.70
2018-03-25T12:00:02.548Z,23.10
2018-03-25T12:01:03.384Z,22.90
2018-03-25T12:02:04.486Z,22.80
2018-03-25T12:03:05.273Z,21.60
2018-03-25T12:04:05.981Z,22.10
2018-03-25T12:05:06.848Z,21.80
2018-03-25T12:06:07.672Z,22.30
2018-03-25T12:07:16.615Z,23.00
2018-03-25T12:08:17.940Z,22.00
2018-03-25T12:09:18.987Z,22.20
2018-03-25T12:10:19.940Z,23.10
2018-03-25T12:11:23.139Z,22.60
2018-03-25T12:12:23.880Z,22.60
2018-03-25T12:13:24.640Z,22.20
2018-03-25T12:14:25.413Z,21.50
2018-03-25T12:15:26.808Z,21.50
2018-03-25T12:16:39.914Z,21.80
2018-03-25T12:17:40.754Z,22.40
2018-03-25T12:19:35.849Z,22.40
2018-03-25T12:20:25.313Z,21.50
2018-03-25T12:21:39.706Z,22.60
2018-03-25T12:23:05.766Z,22.00
2018-03-25T12:24:06.488Z,21.80
2018-03-25T12:25:07.197Z,20.70
2018-03-25T12:26:07.922Z,19.00
2018-03-25T12:27:08.595Z,19.30
2018-03-25T12:28:28.148Z,19.00
2018-03-25T12:29:36.027Z,20.50
2018-03-25T12:30:36.721Z,19.00
2018-03-25T12:31:37.388Z,20.60
2018-03-25T12:32:38.096Z,23.10
2018-03-25T12:33:38.785Z,22.60
2018-03-25T12:34:47.318Z,21.80
2018-03-25T12:35:48.304Z,20.90
2018-03-25T12:36:49.175Z,20.50
2018-03-25T12:38:14.653Z,19.90
2018-03-25T12:39:15.559Z,21.30
2018-03-25T12:40:16.316Z,21.50
2018-03-25T12:41:18.141Z,20.60
2018-03-25T12:42:35.474Z,18.80
2018-03-25T12:43:36.277Z,18.80
2018-03-25T12:44:36.967Z,18.80
2018-03-25T12:45:37.788Z,18.60
2018-03-25T12:46:38.578Z,18.90
2018-03-25T12:47:39.392Z,19.20
2018-03-25T12:48:40.080Z,17.40
2018-03-25T12:49:40.756Z,17.00
2018-03-25T12:50:41.429Z,16.40
2018-03-25T12:51:45.180Z,16.80
2018-03-25T12:52:45.900Z,16.80
2018-03-25T12:53:46.735Z,18.90
2018-03-25T12:54:48.279Z,17.40
2018-03-25T12:55:48.951Z,16.70
2018-03-25T12:56:49.663Z,16.90
2018-03-25T12:57:50.391Z,16.50
2018-03-25T12:58:51.112Z,16.70
2018-03-25T12:59:51.858Z,16.60
2018-03-25T13:00:52.517Z,15.50
2018-03-25T13:01:53.234Z,16.50
2018-03-25T13:02:54.004Z,13.20
2018-03-25T13:04:01.228Z,12.80
2018-03-25T13:05:07.019Z,12.80
2018-03-25T13:06:07.823Z,12.40
2018-03-25T13:07:08.529Z,13.40
2018-03-25T13:08:10.080Z,14.80
2018-03-25T13:09:10.799Z,14.10
2018-03-25T13:10:11.512Z,14.60
2018-03-25T13:11:12.167Z,14.80
2018-03-25T13:12:12.859Z,14.90
2018-03-25T13:13:13.514Z,15.60
2018-03-25T13:14:14.280Z,15.80
2018-03-25T13:15:14.977Z,14.40
2018-03-25T13:16:15.649Z,14.40
2018-03-25T13:17:16.326Z,14.70
2018-03-25T13:18:16.967Z,14.60
2018-03-25T13:19:17.632Z,14.80
2018-03-25T13:20:19.016Z,14.60
2018-03-25T13:21:19.741Z,15.20
2018-03-25T13:22:20.520Z,17.20
2018-03-25T13:23:21.206Z,16.70
2018-03-25T13:24:22.006Z,17.80
2018-03-25T13:25:22.756Z,19.20
2018-03-25T13:26:23.431Z,18.00
2018-03-25T13:27:24.120Z,18.80
2018-03-25T13:28:24.829Z,18.20
2018-03-25T13:29:25.536Z,18.20
2018-03-25T13:30:27.126Z,18.10
2018-03-25T13:31:27.796Z,17.50
2018-03-25T13:32:28.525Z,18.50
2018-03-25T13:33:29.221Z,20.90
2018-03-25T13:34:29.880Z,17.70
2018-03-25T13:35:30.554Z,17.70